sensor_id;sensor_type;location;lat;lon;timestamp;temperature;humidity
68257;DHT22;55069;51.568;4.656;2023-09-19T00:02:19;15.34;82.27
68257;DHT22;55069;51.568;4.656;2023-09-19T00:04:44;15.34;82.13
68257;DHT22;55069;51.568;4.656;2023-09-19T00:07:10;15.25;82.58
68257;DHT22;55069;51.568;4.656;2023-09-19T00:09:35;15.12;82.51
68257;DHT22;55069;51.568;4.656;2023-09-19T00:12:07;15.07;82.57
68257;DHT22;55069;51.568;4.656;2023-09-19T00:14:34;15.05;82.18
68257;DHT22;55069;51.568;4.656;2023-09-19T00:17:04;15.00;82.10
68257;DHT22;55069;51.568;4.656;2023-09-19T00:19:35;14.92;82.24
68257;DHT22;55069;51.568;4.656;2023-09-19T00:22:01;14.84;82.44
68257;DHT22;55069;51.568;4.656;2023-09-19T00:24:26;14.83;81.55
68257;DHT22;55069;51.568;4.656;2023-09-19T00:26:53;14.77;82.21
68257;DHT22;55069;51.568;4.656;2023-09-19T00:29:19;14.77;81.98
68257;DHT22;55069;51.568;4.656;2023-09-19T00:31:45;14.73;81.30
68257;DHT22;55069;51.568;4.656;2023-09-19T00:34:11;14.70;80.84
68257;DHT22;55069;51.568;4.656;2023-09-19T00:36:37;14.63;81.52
68257;DHT22;55069;51.568;4.656;2023-09-19T00:39:06;14.60;82.63
68257;DHT22;55069;51.568;4.656;2023-09-19T00:41:33;14.56;81.82
68257;DHT22;55069;51.568;4.656;2023-09-19T00:44:01;14.49;81.77
68257;DHT22;55069;51.568;4.656;2023-09-19T00:46:27;14.49;80.70
68257;DHT22;55069;51.568;4.656;2023-09-19T00:48:53;14.49;81.34
68257;DHT22;55069;51.568;4.656;2023-09-19T00:51:20;14.47;80.75
68257;DHT22;55069;51.568;4.656;2023-09-19T00:53:47;14.40;80.63
68257;DHT22;55069;51.568;4.656;2023-09-19T00:56:14;14.36;79.80
68257;DHT22;55069;51.568;4.656;2023-09-19T00:58:40;14.34;79.97
68257;DHT22;55069;51.568;4.656;2023-09-19T01:01:06;14.34;80.42
68257;DHT22;55069;51.568;4.656;2023-09-19T01:03:35;14.43;79.53
68257;DHT22;55069;51.568;4.656;2023-09-19T01:06:01;14.43;80.01
68257;DHT22;55069;51.568;4.656;2023-09-19T01:08:28;14.39;79.51
68257;DHT22;55069;51.568;4.656;2023-09-19T01:11:09;14.39;78.40
68257;DHT22;55069;51.568;4.656;2023-09-19T01:13:52;14.37;78.78
68257;DHT22;55069;51.568;4.656;2023-09-19T01:16:32;14.33;79.80
68257;DHT22;55069;51.568;4.656;2023-09-19T01:19:42;14.26;79.47
68257;DHT22;55069;51.568;4.656;2023-09-19T01:22:33;14.28;80.29
68257;DHT22;55069;51.568;4.656;2023-09-19T01:28:28;14.22;78.95
68257;DHT22;55069;51.568;4.656;2023-09-19T01:30:58;14.22;79.62
68257;DHT22;55069;51.568;4.656;2023-09-19T01:33:26;14.16;79.44
68257;DHT22;55069;51.568;4.656;2023-09-19T01:35:52;14.14;79.82
68257;DHT22;55069;51.568;4.656;2023-09-19T01:38:22;14.19;79.00
68257;DHT22;55069;51.568;4.656;2023-09-19T01:41:03;14.15;80.28
68257;DHT22;55069;51.568;4.656;2023-09-19T01:43:36;14.12;79.58
68257;DHT22;55069;51.568;4.656;2023-09-19T01:46:15;14.16;79.24
68257;DHT22;55069;51.568;4.656;2023-09-19T01:49:13;14.16;78.46
68257;DHT22;55069;51.568;4.656;2023-09-19T01:54:33;14.16;78.11
68257;DHT22;55069;51.568;4.656;2023-09-19T01:57:08;14.11;79.46
68257;DHT22;55069;51.568;4.656;2023-09-19T01:59:48;14.06;80.52
68257;DHT22;55069;51.568;4.656;2023-09-19T02:02:16;14.01;80.30
68257;DHT22;55069;51.568;4.656;2023-09-19T02:04:43;13.91;80.73
68257;DHT22;55069;51.568;4.656;2023-09-19T02:07:08;13.89;80.82
68257;DHT22;55069;51.568;4.656;2023-09-19T02:09:34;13.84;79.64
68257;DHT22;55069;51.568;4.656;2023-09-19T02:12:01;13.85;78.83
68257;DHT22;55069;51.568;4.656;2023-09-19T02:14:28;13.92;79.90
68257;DHT22;55069;51.568;4.656;2023-09-19T02:16:55;13.89;80.20
68257;DHT22;55069;51.568;4.656;2023-09-19T02:19:21;13.85;80.43
68257;DHT22;55069;51.568;4.656;2023-09-19T02:21:46;13.87;79.67
68257;DHT22;55069;51.568;4.656;2023-09-19T02:24:14;13.84;79.84
68257;DHT22;55069;51.568;4.656;2023-09-19T02:26:40;13.87;79.58
68257;DHT22;55069;51.568;4.656;2023-09-19T02:29:06;13.85;79.44
68257;DHT22;55069;51.568;4.656;2023-09-19T02:31:32;13.81;79.62
68257;DHT22;55069;51.568;4.656;2023-09-19T02:33:57;13.75;80.12
68257;DHT22;55069;51.568;4.656;2023-09-19T02:36:23;13.77;79.57
68257;DHT22;55069;51.568;4.656;2023-09-19T02:38:49;13.75;78.86
68257;DHT22;55069;51.568;4.656;2023-09-19T02:41:14;13.70;80.10
68257;DHT22;55069;51.568;4.656;2023-09-19T02:43:40;13.64;79.15
68257;DHT22;55069;51.568;4.656;2023-09-19T02:46:05;13.61;79.88
68257;DHT22;55069;51.568;4.656;2023-09-19T02:48:32;13.61;80.10
68257;DHT22;55069;51.568;4.656;2023-09-19T02:50:59;13.58;80.54
68257;DHT22;55069;51.568;4.656;2023-09-19T02:53:25;13.57;80.60
68257;DHT22;55069;51.568;4.656;2023-09-19T02:55:51;13.60;80.73
68257;DHT22;55069;51.568;4.656;2023-09-19T02:58:17;13.58;80.88
68257;DHT22;55069;51.568;4.656;2023-09-19T03:00:43;13.51;81.24
68257;DHT22;55069;51.568;4.656;2023-09-19T03:03:12;13.48;80.85
68257;DHT22;55069;51.568;4.656;2023-09-19T03:05:38;13.44;81.01
68257;DHT22;55069;51.568;4.656;2023-09-19T03:08:04;13.39;80.94
68257;DHT22;55069;51.568;4.656;2023-09-19T03:10:30;13.42;81.13
68257;DHT22;55069;51.568;4.656;2023-09-19T03:12:58;13.46;80.88
68257;DHT22;55069;51.568;4.656;2023-09-19T03:15:25;13.42;80.79
68257;DHT22;55069;51.568;4.656;2023-09-19T03:17:52;13.46;81.22
68257;DHT22;55069;51.568;4.656;2023-09-19T03:20:20;13.42;81.24
68257;DHT22;55069;51.568;4.656;2023-09-19T03:22:48;13.40;81.32
68257;DHT22;55069;51.568;4.656;2023-09-19T03:25:15;13.42;81.05
68257;DHT22;55069;51.568;4.656;2023-09-19T03:27:43;13.42;81.83
68257;DHT22;55069;51.568;4.656;2023-09-19T03:30:10;13.39;81.56
68257;DHT22;55069;51.568;4.656;2023-09-19T03:32:46;13.40;81.67
68257;DHT22;55069;51.568;4.656;2023-09-19T03:35:12;13.44;81.33
68257;DHT22;55069;51.568;4.656;2023-09-19T03:37:41;13.46;81.43
68257;DHT22;55069;51.568;4.656;2023-09-19T03:40:08;13.46;81.82
68257;DHT22;55069;51.568;4.656;2023-09-19T03:42:38;13.44;82.18
68257;DHT22;55069;51.568;4.656;2023-09-19T03:45:04;13.50;82.50
68257;DHT22;55069;51.568;4.656;2023-09-19T03:47:32;13.51;82.22
68257;DHT22;55069;51.568;4.656;2023-09-19T03:50:00;13.60;81.88
68257;DHT22;55069;51.568;4.656;2023-09-19T03:52:26;13.64;82.06
68257;DHT22;55069;51.568;4.656;2023-09-19T03:54:52;13.61;81.43
68257;DHT22;55069;51.568;4.656;2023-09-19T03:57:17;13.68;81.91
68257;DHT22;55069;51.568;4.656;2023-09-19T03:59:46;13.73;81.43
68257;DHT22;55069;51.568;4.656;2023-09-19T04:02:13;13.68;82.11
68257;DHT22;55069;51.568;4.656;2023-09-19T04:04:49;13.71;82.12
68257;DHT22;55069;51.568;4.656;2023-09-19T04:07:15;13.70;82.43
68257;DHT22;55069;51.568;4.656;2023-09-19T04:09:41;13.73;82.09
68257;DHT22;55069;51.568;4.656;2023-09-19T04:12:07;13.70;82.24
68257;DHT22;55069;51.568;4.656;2023-09-19T04:14:34;13.75;82.20
68257;DHT22;55069;51.568;4.656;2023-09-19T04:17:00;13.78;82.13
68257;DHT22;55069;51.568;4.656;2023-09-19T04:19:26;13.78;81.90
68257;DHT22;55069;51.568;4.656;2023-09-19T04:21:51;13.85;82.09
68257;DHT22;55069;51.568;4.656;2023-09-19T04:24:17;13.87;81.96
68257;DHT22;55069;51.568;4.656;2023-09-19T04:26:45;13.85;81.86
68257;DHT22;55069;51.568;4.656;2023-09-19T04:29:10;13.82;82.41
68257;DHT22;55069;51.568;4.656;2023-09-19T04:31:38;13.87;82.50
68257;DHT22;55069;51.568;4.656;2023-09-19T04:34:06;13.85;82.87
68257;DHT22;55069;51.568;4.656;2023-09-19T04:36:33;13.81;82.50
68257;DHT22;55069;51.568;4.656;2023-09-19T04:39:00;13.82;82.72
68257;DHT22;55069;51.568;4.656;2023-09-19T04:41:27;13.84;82.67
68257;DHT22;55069;51.568;4.656;2023-09-19T04:43:53;13.84;82.79
68257;DHT22;55069;51.568;4.656;2023-09-19T04:46:18;13.85;82.99
68257;DHT22;55069;51.568;4.656;2023-09-19T04:48:44;13.82;83.16
68257;DHT22;55069;51.568;4.656;2023-09-19T04:51:09;13.87;83.25
68257;DHT22;55069;51.568;4.656;2023-09-19T04:53:36;13.95;83.44
68257;DHT22;55069;51.568;4.656;2023-09-19T04:56:01;13.95;83.39
68257;DHT22;55069;51.568;4.656;2023-09-19T04:58:29;13.98;83.71
68257;DHT22;55069;51.568;4.656;2023-09-19T05:00:55;13.89;84.44
68257;DHT22;55069;51.568;4.656;2023-09-19T05:03:22;13.84;84.47
68257;DHT22;55069;51.568;4.656;2023-09-19T05:05:48;13.78;84.78
68257;DHT22;55069;51.568;4.656;2023-09-19T05:08:14;13.81;84.74
68257;DHT22;55069;51.568;4.656;2023-09-19T05:10:40;13.84;84.72
68257;DHT22;55069;51.568;4.656;2023-09-19T05:13:06;13.88;84.92
68257;DHT22;55069;51.568;4.656;2023-09-19T05:15:33;13.89;85.16
68257;DHT22;55069;51.568;4.656;2023-09-19T05:17:59;13.88;85.19
68257;DHT22;55069;51.568;4.656;2023-09-19T05:20:24;13.89;85.73
68257;DHT22;55069;51.568;4.656;2023-09-19T05:23:02;13.87;85.58
68257;DHT22;55069;51.568;4.656;2023-09-19T05:25:29;13.84;85.57
68257;DHT22;55069;51.568;4.656;2023-09-19T05:27:57;13.81;85.87
68257;DHT22;55069;51.568;4.656;2023-09-19T05:30:23;13.79;86.16
68257;DHT22;55069;51.568;4.656;2023-09-19T05:32:49;13.78;86.23
68257;DHT22;55069;51.568;4.656;2023-09-19T05:35:14;13.79;86.10
68257;DHT22;55069;51.568;4.656;2023-09-19T05:37:41;13.73;86.57
68257;DHT22;55069;51.568;4.656;2023-09-19T05:40:07;13.78;86.50
68257;DHT22;55069;51.568;4.656;2023-09-19T05:42:35;13.77;86.46
68257;DHT22;55069;51.568;4.656;2023-09-19T05:45:01;13.77;86.71
68257;DHT22;55069;51.568;4.656;2023-09-19T05:47:26;13.79;86.43
68257;DHT22;55069;51.568;4.656;2023-09-19T05:49:52;13.77;86.65
68257;DHT22;55069;51.568;4.656;2023-09-19T05:52:18;13.79;86.81
68257;DHT22;55069;51.568;4.656;2023-09-19T05:54:45;13.82;86.72
68257;DHT22;55069;51.568;4.656;2023-09-19T05:57:10;13.85;86.57
68257;DHT22;55069;51.568;4.656;2023-09-19T05:59:37;13.85;86.46
68257;DHT22;55069;51.568;4.656;2023-09-19T06:02:05;13.88;86.56
68257;DHT22;55069;51.568;4.656;2023-09-19T06:04:31;13.88;86.53
68257;DHT22;55069;51.568;4.656;2023-09-19T06:06:57;13.91;86.74
68257;DHT22;55069;51.568;4.656;2023-09-19T06:09:23;13.98;86.48
68257;DHT22;55069;51.568;4.656;2023-09-19T06:11:49;13.94;86.65
68257;DHT22;55069;51.568;4.656;2023-09-19T06:14:14;13.95;86.44
68257;DHT22;55069;51.568;4.656;2023-09-19T06:16:43;13.98;86.59
68257;DHT22;55069;51.568;4.656;2023-09-19T06:19:08;14.02;86.53
68257;DHT22;55069;51.568;4.656;2023-09-19T06:21:36;14.08;86.45
68257;DHT22;55069;51.568;4.656;2023-09-19T06:24:02;14.08;86.25
68257;DHT22;55069;51.568;4.656;2023-09-19T06:26:28;14.09;86.28
68257;DHT22;55069;51.568;4.656;2023-09-19T06:28:54;14.15;86.25
68257;DHT22;55069;51.568;4.656;2023-09-19T06:31:21;14.14;85.95
68257;DHT22;55069;51.568;4.656;2023-09-19T06:33:48;14.15;86.48
68257;DHT22;55069;51.568;4.656;2023-09-19T06:36:14;14.16;86.38
68257;DHT22;55069;51.568;4.656;2023-09-19T06:38:40;14.23;86.34
68257;DHT22;55069;51.568;4.656;2023-09-19T06:41:06;14.29;86.10
68257;DHT22;55069;51.568;4.656;2023-09-19T06:43:34;14.30;86.04
68257;DHT22;55069;51.568;4.656;2023-09-19T06:46:03;14.30;85.85
68257;DHT22;55069;51.568;4.656;2023-09-19T06:48:29;14.36;85.87
68257;DHT22;55069;51.568;4.656;2023-09-19T06:50:56;14.40;85.87
68257;DHT22;55069;51.568;4.656;2023-09-19T06:53:23;14.47;85.65
68257;DHT22;55069;51.568;4.656;2023-09-19T06:55:50;14.52;85.83
68257;DHT22;55069;51.568;4.656;2023-09-19T06:58:16;14.61;85.44
68257;DHT22;55069;51.568;4.656;2023-09-19T07:00:42;14.63;85.32
68257;DHT22;55069;51.568;4.656;2023-09-19T07:03:08;14.66;85.14
68257;DHT22;55069;51.568;4.656;2023-09-19T07:05:37;14.67;85.37
68257;DHT22;55069;51.568;4.656;2023-09-19T07:08:07;14.71;85.01
68257;DHT22;55069;51.568;4.656;2023-09-19T07:10:34;14.81;85.04
68257;DHT22;55069;51.568;4.656;2023-09-19T07:13:01;14.91;84.82
68257;DHT22;55069;51.568;4.656;2023-09-19T07:15:28;14.98;84.71
68257;DHT22;55069;51.568;4.656;2023-09-19T07:17:56;15.01;84.70
68257;DHT22;55069;51.568;4.656;2023-09-19T07:20:23;15.01;83.95
68257;DHT22;55069;51.568;4.656;2023-09-19T07:22:50;15.17;84.39
68257;DHT22;55069;51.568;4.656;2023-09-19T07:25:16;15.18;83.97
68257;DHT22;55069;51.568;4.656;2023-09-19T07:27:42;15.24;83.70
68257;DHT22;55069;51.568;4.656;2023-09-19T07:30:09;15.34;83.67
68257;DHT22;55069;51.568;4.656;2023-09-19T07:32:34;15.38;83.33
68257;DHT22;55069;51.568;4.656;2023-09-19T07:35:04;15.48;83.43
68257;DHT22;55069;51.568;4.656;2023-09-19T07:37:31;15.55;82.51
68257;DHT22;55069;51.568;4.656;2023-09-19T07:40:07;15.60;82.27
68257;DHT22;55069;51.568;4.656;2023-09-19T07:42:36;15.63;82.30
68257;DHT22;55069;51.568;4.656;2023-09-19T07:45:04;15.70;82.22
68257;DHT22;55069;51.568;4.656;2023-09-19T07:47:30;15.74;81.83
68257;DHT22;55069;51.568;4.656;2023-09-19T07:49:58;15.77;81.34
68257;DHT22;55069;51.568;4.656;2023-09-19T07:52:25;15.84;82.11
68257;DHT22;55069;51.568;4.656;2023-09-19T07:54:50;15.87;81.86
68257;DHT22;55069;51.568;4.656;2023-09-19T07:57:16;15.89;81.46
68257;DHT22;55069;51.568;4.656;2023-09-19T07:59:41;15.96;81.24
68257;DHT22;55069;51.568;4.656;2023-09-19T08:02:10;15.94;81.38
68257;DHT22;55069;51.568;4.656;2023-09-19T08:04:44;16.01;81.22
68257;DHT22;55069;51.568;4.656;2023-09-19T08:07:12;16.08;80.84
68257;DHT22;55069;51.568;4.656;2023-09-19T08:09:38;16.13;80.54
68257;DHT22;55069;51.568;4.656;2023-09-19T08:12:05;16.26;80.68
68257;DHT22;55069;51.568;4.656;2023-09-19T08:14:33;16.36;80.41
68257;DHT22;55069;51.568;4.656;2023-09-19T08:16:59;16.41;80.14
68257;DHT22;55069;51.568;4.656;2023-09-19T08:19:25;16.49;80.04
68257;DHT22;55069;51.568;4.656;2023-09-19T08:21:56;16.55;79.82
68257;DHT22;55069;51.568;4.656;2023-09-19T08:24:28;16.58;79.60
68257;DHT22;55069;51.568;4.656;2023-09-19T08:26:57;16.62;79.56
68257;DHT22;55069;51.568;4.656;2023-09-19T08:29:24;16.65;79.19
68257;DHT22;55069;51.568;4.656;2023-09-19T08:31:56;16.87;78.96
68257;DHT22;55069;51.568;4.656;2023-09-19T08:34:23;17.03;78.76
68257;DHT22;55069;51.568;4.656;2023-09-19T08:36:53;17.10;77.78
68257;DHT22;55069;51.568;4.656;2023-09-19T08:39:22;17.17;77.39
68257;DHT22;55069;51.568;4.656;2023-09-19T08:41:48;17.31;77.47
68257;DHT22;55069;51.568;4.656;2023-09-19T08:44:13;17.34;77.54
68257;DHT22;55069;51.568;4.656;2023-09-19T08:46:41;17.42;76.92
68257;DHT22;55069;51.568;4.656;2023-09-19T08:49:36;17.41;76.00
68257;DHT22;55069;51.568;4.656;2023-09-19T08:52:19;17.57;76.72
68257;DHT22;55069;51.568;4.656;2023-09-19T08:54:47;17.55;76.22
68257;DHT22;55069;51.568;4.656;2023-09-19T08:57:15;17.58;76.38
68257;DHT22;55069;51.568;4.656;2023-09-19T08:59:48;17.64;75.98
68257;DHT22;55069;51.568;4.656;2023-09-19T09:02:15;17.66;75.85
68257;DHT22;55069;51.568;4.656;2023-09-19T09:04:43;17.75;75.82
68257;DHT22;55069;51.568;4.656;2023-09-19T09:07:13;17.69;76.42
68257;DHT22;55069;51.568;4.656;2023-09-19T09:09:39;17.76;76.84
68257;DHT22;55069;51.568;4.656;2023-09-19T09:12:14;17.71;76.54
68257;DHT22;55069;51.568;4.656;2023-09-19T09:14:44;17.72;76.70
68257;DHT22;55069;51.568;4.656;2023-09-19T09:17:10;17.81;75.92
68257;DHT22;55069;51.568;4.656;2023-09-19T09:19:37;18.03;76.28
68257;DHT22;55069;51.568;4.656;2023-09-19T09:22:07;18.17;74.79
68257;DHT22;55069;51.568;4.656;2023-09-19T09:24:33;18.30;74.52
68257;DHT22;55069;51.568;4.656;2023-09-19T09:26:59;18.40;74.09
68257;DHT22;55069;51.568;4.656;2023-09-19T09:29:42;18.60;73.66
68257;DHT22;55069;51.568;4.656;2023-09-19T09:32:24;18.75;73.24
68257;DHT22;55069;51.568;4.656;2023-09-19T09:34:55;18.79;72.97
68257;DHT22;55069;51.568;4.656;2023-09-19T09:37:21;18.84;73.38
68257;DHT22;55069;51.568;4.656;2023-09-19T09:39:57;18.88;72.47
68257;DHT22;55069;51.568;4.656;2023-09-19T09:42:36;18.98;72.35
68257;DHT22;55069;51.568;4.656;2023-09-19T09:45:18;19.15;72.26
68257;DHT22;55069;51.568;4.656;2023-09-19T09:47:46;19.40;72.28
68257;DHT22;55069;51.568;4.656;2023-09-19T09:50:33;19.54;71.01
68257;DHT22;55069;51.568;4.656;2023-09-19T09:53:29;19.40;71.25
68257;DHT22;55069;51.568;4.656;2023-09-19T09:56:05;19.15;70.75
68257;DHT22;55069;51.568;4.656;2023-09-19T09:58:32;19.15;70.80
68257;DHT22;55069;51.568;4.656;2023-09-19T10:00:59;19.53;70.61
68257;DHT22;55069;51.568;4.656;2023-09-19T10:03:38;19.78;70.68
68257;DHT22;55069;51.568;4.656;2023-09-19T10:06:15;19.84;69.46
68257;DHT22;55069;51.568;4.656;2023-09-19T10:09:05;20.25;69.45
68257;DHT22;55069;51.568;4.656;2023-09-19T10:11:47;20.19;66.86
68257;DHT22;55069;51.568;4.656;2023-09-19T10:14:20;20.42;67.98
68257;DHT22;55069;51.568;4.656;2023-09-19T10:16:51;20.44;68.16
68257;DHT22;55069;51.568;4.656;2023-09-19T10:19:42;20.37;68.62
68257;DHT22;55069;51.568;4.656;2023-09-19T10:22:12;20.57;68.71
68257;DHT22;55069;51.568;4.656;2023-09-19T10:24:40;20.37;66.56
68257;DHT22;55069;51.568;4.656;2023-09-19T10:27:06;20.36;67.61
68257;DHT22;55069;51.568;4.656;2023-09-19T10:29:39;20.33;68.21
68257;DHT22;55069;51.568;4.656;2023-09-19T10:32:06;20.26;67.75
68257;DHT22;55069;51.568;4.656;2023-09-19T10:34:35;20.19;67.16
68257;DHT22;55069;51.568;4.656;2023-09-19T10:37:02;20.16;66.21
68257;DHT22;55069;51.568;4.656;2023-09-19T10:39:32;20.04;67.17
68257;DHT22;55069;51.568;4.656;2023-09-19T10:42:02;20.18;67.92
68257;DHT22;55069;51.568;4.656;2023-09-19T10:44:32;20.22;65.70
68257;DHT22;55069;51.568;4.656;2023-09-19T10:46:58;20.26;66.36
68257;DHT22;55069;51.568;4.656;2023-09-19T10:49:24;20.36;67.21
68257;DHT22;55069;51.568;4.656;2023-09-19T10:51:56;20.59;66.94
68257;DHT22;55069;51.568;4.656;2023-09-19T10:54:27;20.52;65.93
68257;DHT22;55069;51.568;4.656;2023-09-19T10:56:54;20.29;65.73
68257;DHT22;55069;51.568;4.656;2023-09-19T10:59:21;20.56;65.81
68257;DHT22;55069;51.568;4.656;2023-09-19T11:07:06;20.53;65.27
68257;DHT22;55069;51.568;4.656;2023-09-19T11:14:51;21.38;65.62
68257;DHT22;55069;51.568;4.656;2023-09-19T11:30:35;21.21;65.73
68257;DHT22;55069;51.568;4.656;2023-09-19T11:33:34;21.43;66.08
68257;DHT22;55069;51.568;4.656;2023-09-19T11:36:14;21.48;65.20
68257;DHT22;55069;51.568;4.656;2023-09-19T11:47:01;20.64;67.10
68257;DHT22;55069;51.568;4.656;2023-09-19T11:49:30;20.43;67.83
68257;DHT22;55069;51.568;4.656;2023-09-19T11:52:01;20.46;67.63
68257;DHT22;55069;51.568;4.656;2023-09-19T11:54:30;20.30;67.85
68257;DHT22;55069;51.568;4.656;2023-09-19T11:56:58;20.16;68.37
68257;DHT22;55069;51.568;4.656;2023-09-19T11:59:29;19.84;68.63
68257;DHT22;55069;51.568;4.656;2023-09-19T12:02:04;19.94;69.09
68257;DHT22;55069;51.568;4.656;2023-09-19T12:04:41;20.01;68.64
68257;DHT22;55069;51.568;4.656;2023-09-19T12:07:12;20.01;68.31
68257;DHT22;55069;51.568;4.656;2023-09-19T12:09:45;19.94;69.45
68257;DHT22;55069;51.568;4.656;2023-09-19T12:12:25;19.96;69.43
68257;DHT22;55069;51.568;4.656;2023-09-19T12:14:56;19.91;69.23
68257;DHT22;55069;51.568;4.656;2023-09-19T12:17:37;19.89;70.39
68257;DHT22;55069;51.568;4.656;2023-09-19T12:20:04;19.82;70.04
68257;DHT22;55069;51.568;4.656;2023-09-19T12:22:45;19.89;69.87
68257;DHT22;55069;51.568;4.656;2023-09-19T12:25:12;19.96;69.79
68257;DHT22;55069;51.568;4.656;2023-09-19T12:27:48;19.85;69.05
68257;DHT22;55069;51.568;4.656;2023-09-19T12:30:18;19.88;68.76
68257;DHT22;55069;51.568;4.656;2023-09-19T12:32:46;19.98;69.79
68257;DHT22;55069;51.568;4.656;2023-09-19T12:35:28;19.92;68.64
68257;DHT22;55069;51.568;4.656;2023-09-19T12:37:55;19.81;69.02
68257;DHT22;55069;51.568;4.656;2023-09-19T12:40:22;19.92;70.29
68257;DHT22;55069;51.568;4.656;2023-09-19T12:42:53;19.99;69.32
68257;DHT22;55069;51.568;4.656;2023-09-19T12:45:20;20.12;69.68
68257;DHT22;55069;51.568;4.656;2023-09-19T12:48:21;20.02;68.85
68257;DHT22;55069;51.568;4.656;2023-09-19T12:51:06;20.11;69.02
68257;DHT22;55069;51.568;4.656;2023-09-19T12:53:45;20.19;68.84
68257;DHT22;55069;51.568;4.656;2023-09-19T12:56:16;20.30;68.72
68257;DHT22;55069;51.568;4.656;2023-09-19T12:58:54;20.32;68.10
68257;DHT22;55069;51.568;4.656;2023-09-19T13:01:21;20.16;67.97
68257;DHT22;55069;51.568;4.656;2023-09-19T13:06:37;20.28;69.40
68257;DHT22;55069;51.568;4.656;2023-09-19T13:09:13;20.29;68.84
68257;DHT22;55069;51.568;4.656;2023-09-19T13:11:40;20.43;68.85
68257;DHT22;55069;51.568;4.656;2023-09-19T13:14:19;20.56;67.50
68257;DHT22;55069;51.568;4.656;2023-09-19T13:17:05;20.85;67.88
68257;DHT22;55069;51.568;4.656;2023-09-19T13:19:51;20.97;67.34
68257;DHT22;55069;51.568;4.656;2023-09-19T13:22:44;20.92;67.25
68257;DHT22;55069;51.568;4.656;2023-09-19T13:25:19;20.92;66.43
68257;DHT22;55069;51.568;4.656;2023-09-19T13:27:46;20.73;66.29
68257;DHT22;55069;51.568;4.656;2023-09-19T13:30:13;20.60;67.83
68257;DHT22;55069;51.568;4.656;2023-09-19T13:32:39;20.63;67.64
68257;DHT22;55069;51.568;4.656;2023-09-19T13:35:06;20.63;68.79
68257;DHT22;55069;51.568;4.656;2023-09-19T13:37:35;20.70;68.17
68257;DHT22;55069;51.568;4.656;2023-09-19T13:40:08;20.70;66.92
68257;DHT22;55069;51.568;4.656;2023-09-19T13:42:34;20.76;67.26
68257;DHT22;55069;51.568;4.656;2023-09-19T13:45:02;20.85;68.18
68257;DHT22;55069;51.568;4.656;2023-09-19T13:47:30;20.88;68.29
68257;DHT22;55069;51.568;4.656;2023-09-19T13:49:55;20.81;68.24
68257;DHT22;55069;51.568;4.656;2023-09-19T13:52:21;20.59;67.57
68257;DHT22;55069;51.568;4.656;2023-09-19T13:54:50;20.49;67.75
68257;DHT22;55069;51.568;4.656;2023-09-19T13:57:16;20.47;68.67
68257;DHT22;55069;51.568;4.656;2023-09-19T13:59:42;20.34;68.82
68257;DHT22;55069;51.568;4.656;2023-09-19T14:02:08;20.39;69.24
68257;DHT22;55069;51.568;4.656;2023-09-19T14:04:33;20.40;68.42
68257;DHT22;55069;51.568;4.656;2023-09-19T14:07:02;20.46;68.76
68257;DHT22;55069;51.568;4.656;2023-09-19T14:09:29;20.57;67.92
68257;DHT22;55069;51.568;4.656;2023-09-19T14:11:54;20.52;67.02
68257;DHT22;55069;51.568;4.656;2023-09-19T14:14:20;20.70;68.03
68257;DHT22;55069;51.568;4.656;2023-09-19T14:16:47;20.76;66.85
68257;DHT22;55069;51.568;4.656;2023-09-19T14:19:13;20.76;67.38
68257;DHT22;55069;51.568;4.656;2023-09-19T14:21:40;20.57;67.28
68257;DHT22;55069;51.568;4.656;2023-09-19T14:24:06;20.46;68.41
68257;DHT22;55069;51.568;4.656;2023-09-19T14:26:41;20.26;67.44
68257;DHT22;55069;51.568;4.656;2023-09-19T14:29:06;20.26;68.62
68257;DHT22;55069;51.568;4.656;2023-09-19T14:31:37;20.16;68.50
68257;DHT22;55069;51.568;4.656;2023-09-19T14:34:05;20.09;69.27
68257;DHT22;55069;51.568;4.656;2023-09-19T14:36:31;20.11;69.48
68257;DHT22;55069;51.568;4.656;2023-09-19T14:38:57;20.01;69.62
68257;DHT22;55069;51.568;4.656;2023-09-19T14:41:23;19.91;69.39
68257;DHT22;55069;51.568;4.656;2023-09-19T14:43:51;19.84;69.11
68257;DHT22;55069;51.568;4.656;2023-09-19T14:46:18;19.85;69.82
68257;DHT22;55069;51.568;4.656;2023-09-19T14:48:44;19.78;69.91
68257;DHT22;55069;51.568;4.656;2023-09-19T14:51:12;19.81;69.02
68257;DHT22;55069;51.568;4.656;2023-09-19T14:53:39;20.12;69.60
68257;DHT22;55069;51.568;4.656;2023-09-19T14:56:09;20.34;68.68
68257;DHT22;55069;51.568;4.656;2023-09-19T14:58:36;20.37;68.80
68257;DHT22;55069;51.568;4.656;2023-09-19T15:01:04;20.53;69.24
68257;DHT22;55069;51.568;4.656;2023-09-19T15:03:34;20.50;68.83
68257;DHT22;55069;51.568;4.656;2023-09-19T15:06:04;20.30;68.87
68257;DHT22;55069;51.568;4.656;2023-09-19T15:08:30;20.05;69.05
68257;DHT22;55069;51.568;4.656;2023-09-19T15:10:56;19.99;69.85
68257;DHT22;55069;51.568;4.656;2023-09-19T15:13:24;19.88;69.84
68257;DHT22;55069;51.568;4.656;2023-09-19T15:16:09;19.77;70.67
68257;DHT22;55069;51.568;4.656;2023-09-19T15:18:39;19.74;70.25
68257;DHT22;55069;51.568;4.656;2023-09-19T15:21:08;19.74;70.84
68257;DHT22;55069;51.568;4.656;2023-09-19T15:23:36;19.77;70.97
68257;DHT22;55069;51.568;4.656;2023-09-19T15:26:02;19.73;70.15
68257;DHT22;55069;51.568;4.656;2023-09-19T15:28:28;19.77;70.76
68257;DHT22;55069;51.568;4.656;2023-09-19T15:31:05;19.74;70.08
68257;DHT22;55069;51.568;4.656;2023-09-19T15:33:32;19.79;70.45
68257;DHT22;55069;51.568;4.656;2023-09-19T15:36:08;19.77;70.12
68257;DHT22;55069;51.568;4.656;2023-09-19T15:39:08;19.73;70.35
68257;DHT22;55069;51.568;4.656;2023-09-19T15:41:38;19.71;70.81
68257;DHT22;55069;51.568;4.656;2023-09-19T15:44:05;19.73;70.83
68257;DHT22;55069;51.568;4.656;2023-09-19T15:46:35;19.66;70.59
68257;DHT22;55069;51.568;4.656;2023-09-19T15:49:01;19.60;71.30
68257;DHT22;55069;51.568;4.656;2023-09-19T15:51:27;19.64;71.17
68257;DHT22;55069;51.568;4.656;2023-09-19T15:53:54;19.66;71.37
68257;DHT22;55069;51.568;4.656;2023-09-19T15:56:22;19.58;71.71
68257;DHT22;55069;51.568;4.656;2023-09-19T15:58:52;19.49;71.91
68257;DHT22;55069;51.568;4.656;2023-09-19T16:01:19;19.43;71.18
68257;DHT22;55069;51.568;4.656;2023-09-19T16:03:51;19.37;71.52
68257;DHT22;55069;51.568;4.656;2023-09-19T16:06:20;19.37;71.61
68257;DHT22;55069;51.568;4.656;2023-09-19T16:08:50;19.36;72.41
68257;DHT22;55069;51.568;4.656;2023-09-19T16:11:17;19.36;72.10
68257;DHT22;55069;51.568;4.656;2023-09-19T16:13:43;19.34;71.90
68257;DHT22;55069;51.568;4.656;2023-09-19T16:16:14;19.34;72.37
68257;DHT22;55069;51.568;4.656;2023-09-19T16:18:51;19.31;71.92
68257;DHT22;55069;51.568;4.656;2023-09-19T16:21:18;19.30;71.42
68257;DHT22;55069;51.568;4.656;2023-09-19T16:23:49;19.27;71.73
68257;DHT22;55069;51.568;4.656;2023-09-19T16:26:16;19.24;71.82